sensor_id;sensor_type;location;lat;lon;timestamp;temperature;humidity
23681;DHT22;62915;50.832;4.462;2023-06-22T00:02:18;23.10;99.90
23681;DHT22;62915;50.832;4.462;2023-06-22T00:04:43;23.10;99.90
23681;DHT22;62915;50.832;4.462;2023-06-22T00:07:09;23.10;99.90
23681;DHT22;62915;50.832;4.462;2023-06-22T00:09:36;23.10;99.90
23681;DHT22;62915;50.832;4.462;2023-06-22T00:12:02;23.00;99.90
23681;DHT22;62915;50.832;4.462;2023-06-22T00:14:27;23.00;99.90
23681;DHT22;62915;50.832;4.462;2023-06-22T00:16:53;23.00;99.90
23681;DHT22;62915;50.832;4.462;2023-06-22T00:19:21;23.00;99.90
23681;DHT22;62915;50.832;4.462;2023-06-22T00:21:47;22.90;99.90
23681;DHT22;62915;50.832;4.462;2023-06-22T00:24:21;22.90;99.90
23681;DHT22;62915;50.832;4.462;2023-06-22T00:26:50;22.90;99.90
23681;DHT22;62915;50.832;4.462;2023-06-22T00:29:16;23.00;99.90
23681;DHT22;62915;50.832;4.462;2023-06-22T00:31:42;22.90;99.90
23681;DHT22;62915;50.832;4.462;2023-06-22T00:34:08;22.90;99.90
23681;DHT22;62915;50.832;4.462;2023-06-22T00:36:35;22.80;99.90
23681;DHT22;62915;50.832;4.462;2023-06-22T00:39:01;22.90;99.90
23681;DHT22;62915;50.832;4.462;2023-06-22T00:41:26;22.80;99.90
23681;DHT22;62915;50.832;4.462;2023-06-22T00:43:54;22.80;99.90
23681;DHT22;62915;50.832;4.462;2023-06-22T00:46:21;22.80;99.90
23681;DHT22;62915;50.832;4.462;2023-06-22T00:48:48;22.80;99.90
23681;DHT22;62915;50.832;4.462;2023-06-22T00:51:16;22.80;99.90
23681;DHT22;62915;50.832;4.462;2023-06-22T00:53:43;22.90;99.90
23681;DHT22;62915;50.832;4.462;2023-06-22T00:56:10;22.80;99.90
23681;DHT22;62915;50.832;4.462;2023-06-22T00:58:38;22.90;99.90
23681;DHT22;62915;50.832;4.462;2023-06-22T01:01:07;22.80;99.90
23681;DHT22;62915;50.832;4.462;2023-06-22T01:03:32;22.90;99.90
23681;DHT22;62915;50.832;4.462;2023-06-22T01:06:05;22.80;99.90
23681;DHT22;62915;50.832;4.462;2023-06-22T01:08:49;22.80;99.90
23681;DHT22;62915;50.832;4.462;2023-06-22T01:11:22;22.70;99.90
23681;DHT22;62915;50.832;4.462;2023-06-22T01:14:06;22.80;99.90
23681;DHT22;62915;50.832;4.462;2023-06-22T01:16:40;22.80;99.90
23681;DHT22;62915;50.832;4.462;2023-06-22T01:22:05;22.70;99.90
23681;DHT22;62915;50.832;4.462;2023-06-22T01:24:54;22.70;99.90
23681;DHT22;62915;50.832;4.462;2023-06-22T01:30:30;22.70;99.90
23681;DHT22;62915;50.832;4.462;2023-06-22T01:32:57;22.70;99.90
23681;DHT22;62915;50.832;4.462;2023-06-22T01:35:24;22.70;99.90
23681;DHT22;62915;50.832;4.462;2023-06-22T01:37:50;22.50;99.90
23681;DHT22;62915;50.832;4.462;2023-06-22T01:40:17;22.40;99.90
23681;DHT22;62915;50.832;4.462;2023-06-22T01:42:44;22.50;99.90
23681;DHT22;62915;50.832;4.462;2023-06-22T01:45:11;22.40;99.90
23681;DHT22;62915;50.832;4.462;2023-06-22T01:47:39;22.50;99.90
23681;DHT22;62915;50.832;4.462;2023-06-22T01:50:05;22.40;99.90
23681;DHT22;62915;50.832;4.462;2023-06-22T01:52:31;22.40;99.90
23681;DHT22;62915;50.832;4.462;2023-06-22T01:54:59;22.40;99.90
23681;DHT22;62915;50.832;4.462;2023-06-22T01:57:26;22.40;99.90
23681;DHT22;62915;50.832;4.462;2023-06-22T02:02:25;22.30;99.90
23681;DHT22;62915;50.832;4.462;2023-06-22T02:04:58;22.40;99.90
23681;DHT22;62915;50.832;4.462;2023-06-22T02:07:30;22.40;99.90
23681;DHT22;62915;50.832;4.462;2023-06-22T02:09:59;22.30;99.90
23681;DHT22;62915;50.832;4.462;2023-06-22T02:12:26;22.30;99.90
23681;DHT22;62915;50.832;4.462;2023-06-22T02:14:53;22.10;99.90
23681;DHT22;62915;50.832;4.462;2023-06-22T02:17:19;22.10;99.90
23681;DHT22;62915;50.832;4.462;2023-06-22T02:19:45;22.00;99.90
23681;DHT22;62915;50.832;4.462;2023-06-22T02:22:11;21.90;99.90
23681;DHT22;62915;50.832;4.462;2023-06-22T02:24:38;21.90;99.90
23681;DHT22;62915;50.832;4.462;2023-06-22T02:27:04;21.80;99.90
23681;DHT22;62915;50.832;4.462;2023-06-22T02:29:32;21.80;99.90
23681;DHT22;62915;50.832;4.462;2023-06-22T02:31:58;21.80;99.90
23681;DHT22;62915;50.832;4.462;2023-06-22T02:34:24;21.60;99.90
23681;DHT22;62915;50.832;4.462;2023-06-22T02:36:50;21.60;99.90
23681;DHT22;62915;50.832;4.462;2023-06-22T02:39:23;21.60;99.90
23681;DHT22;62915;50.832;4.462;2023-06-22T02:41:53;21.60;99.90
23681;DHT22;62915;50.832;4.462;2023-06-22T02:44:20;21.50;99.90
23681;DHT22;62915;50.832;4.462;2023-06-22T02:46:47;21.40;99.90
23681;DHT22;62915;50.832;4.462;2023-06-22T02:49:13;21.40;99.90
23681;DHT22;62915;50.832;4.462;2023-06-22T02:51:44;21.40;99.90
23681;DHT22;62915;50.832;4.462;2023-06-22T02:54:10;21.40;99.90
23681;DHT22;62915;50.832;4.462;2023-06-22T02:56:36;21.40;99.90
23681;DHT22;62915;50.832;4.462;2023-06-22T02:59:02;21.40;99.90
23681;DHT22;62915;50.832;4.462;2023-06-22T03:01:28;21.40;99.90
23681;DHT22;62915;50.832;4.462;2023-06-22T03:03:56;21.30;99.90
23681;DHT22;62915;50.832;4.462;2023-06-22T03:06:22;21.40;99.90
23681;DHT22;62915;50.832;4.462;2023-06-22T03:08:49;21.30;99.90
23681;DHT22;62915;50.832;4.462;2023-06-22T03:11:15;21.30;99.90
23681;DHT22;62915;50.832;4.462;2023-06-22T03:13:41;21.30;99.90
23681;DHT22;62915;50.832;4.462;2023-06-22T03:16:08;21.30;99.90
23681;DHT22;62915;50.832;4.462;2023-06-22T03:18:34;21.20;99.90
23681;DHT22;62915;50.832;4.462;2023-06-22T03:20:59;21.20;99.90
23681;DHT22;62915;50.832;4.462;2023-06-22T03:23:27;21.20;99.90
23681;DHT22;62915;50.832;4.462;2023-06-22T03:25:53;21.10;99.90
23681;DHT22;62915;50.832;4.462;2023-06-22T03:28:21;21.10;99.90
23681;DHT22;62915;50.832;4.462;2023-06-22T03:30:47;21.00;99.90
23681;DHT22;62915;50.832;4.462;2023-06-22T03:33:13;21.00;99.90
23681;DHT22;62915;50.832;4.462;2023-06-22T03:35:38;21.00;99.90
23681;DHT22;62915;50.832;4.462;2023-06-22T03:38:04;21.00;99.90
23681;DHT22;62915;50.832;4.462;2023-06-22T03:40:30;21.10;99.90
23681;DHT22;62915;50.832;4.462;2023-06-22T03:43:00;21.20;99.90
23681;DHT22;62915;50.832;4.462;2023-06-22T03:45:27;21.10;99.90
23681;DHT22;62915;50.832;4.462;2023-06-22T03:47:53;21.10;99.90
23681;DHT22;62915;50.832;4.462;2023-06-22T03:50:19;21.00;99.90
23681;DHT22;62915;50.832;4.462;2023-06-22T03:52:46;21.10;99.90
23681;DHT22;62915;50.832;4.462;2023-06-22T03:55:12;21.00;99.90
23681;DHT22;62915;50.832;4.462;2023-06-22T03:57:38;21.10;99.90
23681;DHT22;62915;50.832;4.462;2023-06-22T04:00:04;21.10;99.90
23681;DHT22;62915;50.832;4.462;2023-06-22T04:02:31;21.20;99.90
23681;DHT22;62915;50.832;4.462;2023-06-22T04:04:57;21.20;99.90
23681;DHT22;62915;50.832;4.462;2023-06-22T04:07:22;21.30;99.90
23681;DHT22;62915;50.832;4.462;2023-06-22T04:09:48;21.30;99.90
23681;DHT22;62915;50.832;4.462;2023-06-22T04:12:14;21.30;99.90
23681;DHT22;62915;50.832;4.462;2023-06-22T04:14:40;21.40;99.90
23681;DHT22;62915;50.832;4.462;2023-06-22T04:17:06;21.40;99.90
23681;DHT22;62915;50.832;4.462;2023-06-22T04:19:32;21.40;99.90
23681;DHT22;62915;50.832;4.462;2023-06-22T04:21:58;21.40;99.90
23681;DHT22;62915;50.832;4.462;2023-06-22T04:24:33;21.40;99.90
23681;DHT22;62915;50.832;4.462;2023-06-22T04:26:59;21.50;99.90
23681;DHT22;62915;50.832;4.462;2023-06-22T04:29:29;21.40;99.90
23681;DHT22;62915;50.832;4.462;2023-06-22T04:31:56;21.50;99.90
23681;DHT22;62915;50.832;4.462;2023-06-22T04:34:24;21.50;99.90
23681;DHT22;62915;50.832;4.462;2023-06-22T04:36:51;21.50;99.90
23681;DHT22;62915;50.832;4.462;2023-06-22T04:39:17;21.50;99.90
23681;DHT22;62915;50.832;4.462;2023-06-22T04:41:44;21.50;99.90
23681;DHT22;62915;50.832;4.462;2023-06-22T04:44:15;21.50;99.90
23681;DHT22;62915;50.832;4.462;2023-06-22T04:46:54;21.40;99.90
23681;DHT22;62915;50.832;4.462;2023-06-22T04:49:25;21.40;99.90
23681;DHT22;62915;50.832;4.462;2023-06-22T04:52:00;21.40;99.90
23681;DHT22;62915;50.832;4.462;2023-06-22T04:54:26;21.40;99.90
23681;DHT22;62915;50.832;4.462;2023-06-22T04:56:52;21.30;99.90
23681;DHT22;62915;50.832;4.462;2023-06-22T04:59:28;21.30;99.90
23681;DHT22;62915;50.832;4.462;2023-06-22T05:02:00;21.40;99.90
23681;DHT22;62915;50.832;4.462;2023-06-22T05:04:26;21.40;99.90
23681;DHT22;62915;50.832;4.462;2023-06-22T05:06:54;21.30;99.90
23681;DHT22;62915;50.832;4.462;2023-06-22T05:09:20;21.20;99.90
23681;DHT22;62915;50.832;4.462;2023-06-22T05:11:46;21.20;99.90
23681;DHT22;62915;50.832;4.462;2023-06-22T05:14:12;21.20;99.90
23681;DHT22;62915;50.832;4.462;2023-06-22T05:16:38;21.20;99.90
23681;DHT22;62915;50.832;4.462;2023-06-22T05:19:05;21.30;99.90
23681;DHT22;62915;50.832;4.462;2023-06-22T05:21:31;21.20;99.90
23681;DHT22;62915;50.832;4.462;2023-06-22T05:23:57;21.10;99.90
23681;DHT22;62915;50.832;4.462;2023-06-22T05:26:26;21.20;99.90
23681;DHT22;62915;50.832;4.462;2023-06-22T05:28:52;21.20;99.90
23681;DHT22;62915;50.832;4.462;2023-06-22T05:31:18;21.10;99.90
23681;DHT22;62915;50.832;4.462;2023-06-22T05:33:49;21.10;99.90
23681;DHT22;62915;50.832;4.462;2023-06-22T05:36:15;20.90;99.90
23681;DHT22;62915;50.832;4.462;2023-06-22T05:38:41;21.00;99.90
23681;DHT22;62915;50.832;4.462;2023-06-22T05:41:07;20.90;99.90
23681;DHT22;62915;50.832;4.462;2023-06-22T05:43:34;20.90;99.90
23681;DHT22;62915;50.832;4.462;2023-06-22T05:46:01;20.90;99.90
23681;DHT22;62915;50.832;4.462;2023-06-22T05:48:27;21.00;99.90
23681;DHT22;62915;50.832;4.462;2023-06-22T05:50:53;21.00;99.90
23681;DHT22;62915;50.832;4.462;2023-06-22T05:53:19;21.10;99.90
23681;DHT22;62915;50.832;4.462;2023-06-22T05:55:45;21.10;99.90
23681;DHT22;62915;50.832;4.462;2023-06-22T05:58:10;21.10;99.90
23681;DHT22;62915;50.832;4.462;2023-06-22T06:00:36;21.20;99.90
23681;DHT22;62915;50.832;4.462;2023-06-22T06:03:02;21.10;99.90
23681;DHT22;62915;50.832;4.462;2023-06-22T06:05:30;21.10;99.90
23681;DHT22;62915;50.832;4.462;2023-06-22T06:07:56;21.10;99.90
23681;DHT22;62915;50.832;4.462;2023-06-22T06:10:22;21.20;99.90
23681;DHT22;62915;50.832;4.462;2023-06-22T06:12:48;21.20;99.90
23681;DHT22;62915;50.832;4.462;2023-06-22T06:15:14;21.20;99.90
23681;DHT22;62915;50.832;4.462;2023-06-22T06:17:52;21.30;99.90
23681;DHT22;62915;50.832;4.462;2023-06-22T06:20:22;21.30;99.90
23681;DHT22;62915;50.832;4.462;2023-06-22T06:22:50;21.30;99.90
23681;DHT22;62915;50.832;4.462;2023-06-22T06:25:24;21.40;99.90
23681;DHT22;62915;50.832;4.462;2023-06-22T06:27:51;21.40;99.90
23681;DHT22;62915;50.832;4.462;2023-06-22T06:30:20;21.30;99.90
23681;DHT22;62915;50.832;4.462;2023-06-22T06:32:46;21.40;99.90
23681;DHT22;62915;50.832;4.462;2023-06-22T06:35:14;21.40;99.90
23681;DHT22;62915;50.832;4.462;2023-06-22T06:37:43;21.40;99.90
23681;DHT22;62915;50.832;4.462;2023-06-22T06:40:10;21.50;99.90
23681;DHT22;62915;50.832;4.462;2023-06-22T06:42:42;21.30;99.90
23681;DHT22;62915;50.832;4.462;2023-06-22T06:45:15;21.50;99.90
23681;DHT22;62915;50.832;4.462;2023-06-22T06:47:40;21.40;99.90
23681;DHT22;62915;50.832;4.462;2023-06-22T06:50:07;21.40;99.90
23681;DHT22;62915;50.832;4.462;2023-06-22T06:52:33;21.30;99.90
23681;DHT22;62915;50.832;4.462;2023-06-22T06:54:59;21.30;99.90
23681;DHT22;62915;50.832;4.462;2023-06-22T06:57:25;21.30;99.90
23681;DHT22;62915;50.832;4.462;2023-06-22T06:59:57;21.30;99.90
23681;DHT22;62915;50.832;4.462;2023-06-22T07:02:23;21.40;99.90
23681;DHT22;62915;50.832;4.462;2023-06-22T07:04:49;21.30;99.90
23681;DHT22;62915;50.832;4.462;2023-06-22T07:07:16;21.40;99.90
23681;DHT22;62915;50.832;4.462;2023-06-22T07:09:42;21.30;99.90
23681;DHT22;62915;50.832;4.462;2023-06-22T07:12:07;21.40;99.90
23681;DHT22;62915;50.832;4.462;2023-06-22T07:14:33;21.60;99.90
23681;DHT22;62915;50.832;4.462;2023-06-22T07:16:59;21.60;99.90
23681;DHT22;62915;50.832;4.462;2023-06-22T07:19:26;21.40;99.90
23681;DHT22;62915;50.832;4.462;2023-06-22T07:21:53;21.40;99.90
23681;DHT22;62915;50.832;4.462;2023-06-22T07:24:20;21.40;99.90
23681;DHT22;62915;50.832;4.462;2023-06-22T07:26:49;21.50;99.90
23681;DHT22;62915;50.832;4.462;2023-06-22T07:29:19;21.70;99.90
23681;DHT22;62915;50.832;4.462;2023-06-22T07:31:49;21.80;99.90
23681;DHT22;62915;50.832;4.462;2023-06-22T07:34:17;21.90;99.90
23681;DHT22;62915;50.832;4.462;2023-06-22T07:36:43;21.80;99.90
23681;DHT22;62915;50.832;4.462;2023-06-22T07:39:09;21.70;99.90
23681;DHT22;62915;50.832;4.462;2023-06-22T07:41:35;21.70;99.90
23681;DHT22;62915;50.832;4.462;2023-06-22T07:44:02;21.50;99.90
23681;DHT22;62915;50.832;4.462;2023-06-22T07:46:29;21.40;99.90
23681;DHT22;62915;50.832;4.462;2023-06-22T07:48:56;21.40;99.90
23681;DHT22;62915;50.832;4.462;2023-06-22T07:51:22;21.40;99.90
23681;DHT22;62915;50.832;4.462;2023-06-22T07:53:48;21.40;99.90
23681;DHT22;62915;50.832;4.462;2023-06-22T07:56:14;21.50;99.90
23681;DHT22;62915;50.832;4.462;2023-06-22T07:58:44;21.60;99.90
23681;DHT22;62915;50.832;4.462;2023-06-22T08:01:13;21.60;99.90
23681;DHT22;62915;50.832;4.462;2023-06-22T08:03:39;21.50;99.90
23681;DHT22;62915;50.832;4.462;2023-06-22T08:06:05;21.50;99.90
23681;DHT22;62915;50.832;4.462;2023-06-22T08:08:31;21.50;99.90
23681;DHT22;62915;50.832;4.462;2023-06-22T08:10:57;21.60;99.90
23681;DHT22;62915;50.832;4.462;2023-06-22T08:13:23;21.60;99.90
23681;DHT22;62915;50.832;4.462;2023-06-22T08:15:48;21.50;99.90
23681;DHT22;62915;50.832;4.462;2023-06-22T08:18:14;21.40;99.90
23681;DHT22;62915;50.832;4.462;2023-06-22T08:20:41;21.40;99.90
23681;DHT22;62915;50.832;4.462;2023-06-22T08:23:07;21.40;99.90
23681;DHT22;62915;50.832;4.462;2023-06-22T08:25:34;21.40;99.90
23681;DHT22;62915;50.832;4.462;2023-06-22T08:28:01;21.50;99.90
23681;DHT22;62915;50.832;4.462;2023-06-22T08:30:28;21.60;99.90
23681;DHT22;62915;50.832;4.462;2023-06-22T08:32:54;21.60;99.90
23681;DHT22;62915;50.832;4.462;2023-06-22T08:35:23;21.50;99.90
23681;DHT22;62915;50.832;4.462;2023-06-22T08:37:49;21.50;99.90
23681;DHT22;62915;50.832;4.462;2023-06-22T08:40:18;21.40;99.90
23681;DHT22;62915;50.832;4.462;2023-06-22T08:42:46;21.30;99.90
23681;DHT22;62915;50.832;4.462;2023-06-22T08:45:12;21.40;99.90
23681;DHT22;62915;50.832;4.462;2023-06-22T08:47:39;21.50;99.90
23681;DHT22;62915;50.832;4.462;2023-06-22T08:50:07;21.50;99.90
23681;DHT22;62915;50.832;4.462;2023-06-22T08:52:35;21.50;99.90
23681;DHT22;62915;50.832;4.462;2023-06-22T08:55:02;21.50;99.90
23681;DHT22;62915;50.832;4.462;2023-06-22T08:57:28;21.50;99.90
23681;DHT22;62915;50.832;4.462;2023-06-22T08:59:54;21.60;99.90
23681;DHT22;62915;50.832;4.462;2023-06-22T09:02:24;21.60;99.90
23681;DHT22;62915;50.832;4.462;2023-06-22T09:04:50;21.50;99.90
23681;DHT22;62915;50.832;4.462;2023-06-22T09:07:24;21.60;99.90
23681;DHT22;62915;50.832;4.462;2023-06-22T09:09:51;21.60;99.90
23681;DHT22;62915;50.832;4.462;2023-06-22T09:12:26;21.70;99.90
23681;DHT22;62915;50.832;4.462;2023-06-22T09:14:53;21.70;99.90
23681;DHT22;62915;50.832;4.462;2023-06-22T09:17:19;21.50;99.90
23681;DHT22;62915;50.832;4.462;2023-06-22T09:19:45;21.60;99.90
23681;DHT22;62915;50.832;4.462;2023-06-22T09:22:10;21.60;99.90
23681;DHT22;62915;50.832;4.462;2023-06-22T09:24:36;21.70;99.90
23681;DHT22;62915;50.832;4.462;2023-06-22T09:27:03;21.70;99.90
23681;DHT22;62915;50.832;4.462;2023-06-22T09:29:29;21.50;99.90
23681;DHT22;62915;50.832;4.462;2023-06-22T09:31:54;21.50;99.90
23681;DHT22;62915;50.832;4.462;2023-06-22T09:34:21;21.40;99.90
23681;DHT22;62915;50.832;4.462;2023-06-22T09:36:47;21.30;99.90
23681;DHT22;62915;50.832;4.462;2023-06-22T09:39:13;21.30;99.90
23681;DHT22;62915;50.832;4.462;2023-06-22T09:41:40;21.20;99.90
23681;DHT22;62915;50.832;4.462;2023-06-22T09:44:05;20.90;99.90
23681;DHT22;62915;50.832;4.462;2023-06-22T09:46:31;20.60;99.90
23681;DHT22;62915;50.832;4.462;2023-06-22T09:48:57;20.40;99.90
23681;DHT22;62915;50.832;4.462;2023-06-22T09:51:26;20.20;99.90
23681;DHT22;62915;50.832;4.462;2023-06-22T09:53:52;20.20;99.90
23681;DHT22;62915;50.832;4.462;2023-06-22T09:56:19;20.30;99.90
23681;DHT22;62915;50.832;4.462;2023-06-22T09:58:46;20.30;99.90
23681;DHT22;62915;50.832;4.462;2023-06-22T10:01:13;20.20;99.90
23681;DHT22;62915;50.832;4.462;2023-06-22T10:03:41;20.30;99.90
23681;DHT22;62915;50.832;4.462;2023-06-22T10:06:07;20.30;99.90
23681;DHT22;62915;50.832;4.462;2023-06-22T10:08:37;20.30;99.90
23681;DHT22;62915;50.832;4.462;2023-06-22T10:11:13;20.30;99.90
23681;DHT22;62915;50.832;4.462;2023-06-22T10:13:41;20.30;99.90
23681;DHT22;62915;50.832;4.462;2023-06-22T10:16:06;20.30;99.90
23681;DHT22;62915;50.832;4.462;2023-06-22T10:18:34;20.30;99.90
23681;DHT22;62915;50.832;4.462;2023-06-22T10:21:00;20.00;99.90
23681;DHT22;62915;50.832;4.462;2023-06-22T10:23:27;20.00;99.90
23681;DHT22;62915;50.832;4.462;2023-06-22T10:25:55;19.90;99.90
23681;DHT22;62915;50.832;4.462;2023-06-22T10:28:30;19.70;99.90
23681;DHT22;62915;50.832;4.462;2023-06-22T10:31:33;19.70;99.90
23681;DHT22;62915;50.832;4.462;2023-06-22T10:34:11;19.60;99.90
23681;DHT22;62915;50.832;4.462;2023-06-22T10:37:09;19.50;99.90
23681;DHT22;62915;50.832;4.462;2023-06-22T10:39:35;19.80;99.90
23681;DHT22;62915;50.832;4.462;2023-06-22T10:42:10;19.70;99.90
23681;DHT22;62915;50.832;4.462;2023-06-22T10:44:52;19.80;99.90
23681;DHT22;62915;50.832;4.462;2023-06-22T10:47:45;19.60;99.90
23681;DHT22;62915;50.832;4.462;2023-06-22T10:50:48;19.50;99.90
23681;DHT22;62915;50.832;4.462;2023-06-22T10:53:22;19.40;99.90
23681;DHT22;62915;50.832;4.462;2023-06-22T10:56:07;19.40;99.90
23681;DHT22;62915;50.832;4.462;2023-06-22T10:58:53;19.40;99.90
23681;DHT22;62915;50.832;4.462;2023-06-22T11:01:40;19.60;99.90
23681;DHT22;62915;50.832;4.462;2023-06-22T11:04:34;19.60;99.90
23681;DHT22;62915;50.832;4.462;2023-06-22T11:07:12;19.60;99.90
23681;DHT22;62915;50.832;4.462;2023-06-22T11:10:09;19.70;99.90
23681;DHT22;62915;50.832;4.462;2023-06-22T11:13:07;19.80;99.90
23681;DHT22;62915;50.832;4.462;2023-06-22T11:15:45;19.80;99.90
23681;DHT22;62915;50.832;4.462;2023-06-22T11:18:56;19.80;99.90
23681;DHT22;62915;50.832;4.462;2023-06-22T11:21:31;20.00;99.90
23681;DHT22;62915;50.832;4.462;2023-06-22T11:24:37;20.00;99.90
23681;DHT22;62915;50.832;4.462;2023-06-22T11:27:14;20.00;99.90
23681;DHT22;62915;50.832;4.462;2023-06-22T11:30:26;20.00;99.90
23681;DHT22;62915;50.832;4.462;2023-06-22T11:33:06;20.00;99.90
23681;DHT22;62915;50.832;4.462;2023-06-22T11:35:34;19.90;99.90
23681;DHT22;62915;50.832;4.462;2023-06-22T11:38:46;19.90;99.90
23681;DHT22;62915;50.832;4.462;2023-06-22T11:44:48;20.00;99.90
23681;DHT22;62915;50.832;4.462;2023-06-22T11:47:13;20.00;99.90
23681;DHT22;62915;50.832;4.462;2023-06-22T11:49:39;19.90;99.90
23681;DHT22;62915;50.832;4.462;2023-06-22T11:52:06;20.00;99.90
23681;DHT22;62915;50.832;4.462;2023-06-22T11:54:32;20.00;99.90
23681;DHT22;62915;50.832;4.462;2023-06-22T11:56:59;20.00;99.90
23681;DHT22;62915;50.832;4.462;2023-06-22T11:59:24;20.00;99.90
23681;DHT22;62915;50.832;4.462;2023-06-22T12:01:50;20.20;99.90
23681;DHT22;62915;50.832;4.462;2023-06-22T12:04:17;20.10;99.90
23681;DHT22;62915;50.832;4.462;2023-06-22T12:06:43;20.00;99.90
23681;DHT22;62915;50.832;4.462;2023-06-22T12:09:09;19.90;99.90
23681;DHT22;62915;50.832;4.462;2023-06-22T12:11:35;19.90;99.90
23681;DHT22;62915;50.832;4.462;2023-06-22T12:14:01;19.70;99.90
23681;DHT22;62915;50.832;4.462;2023-06-22T12:16:30;19.50;99.90
23681;DHT22;62915;50.832;4.462;2023-06-22T12:18:56;19.60;99.90
23681;DHT22;62915;50.832;4.462;2023-06-22T12:21:22;19.50;99.90
23681;DHT22;62915;50.832;4.462;2023-06-22T12:23:48;19.50;99.90
23681;DHT22;62915;50.832;4.462;2023-06-22T12:26:13;19.50;99.90
23681;DHT22;62915;50.832;4.462;2023-06-22T12:28:39;19.60;99.90
23681;DHT22;62915;50.832;4.462;2023-06-22T12:31:05;19.50;99.90
23681;DHT22;62915;50.832;4.462;2023-06-22T12:33:30;19.50;99.90
23681;DHT22;62915;50.832;4.462;2023-06-22T12:35:57;19.50;99.90
23681;DHT22;62915;50.832;4.462;2023-06-22T12:38:22;19.40;99.90
23681;DHT22;62915;50.832;4.462;2023-06-22T12:40:51;19.50;99.90
23681;DHT22;62915;50.832;4.462;2023-06-22T12:43:16;19.50;99.90
23681;DHT22;62915;50.832;4.462;2023-06-22T12:45:42;19.50;99.90
23681;DHT22;62915;50.832;4.462;2023-06-22T12:48:08;19.60;99.90
23681;DHT22;62915;50.832;4.462;2023-06-22T12:50:34;19.50;99.90
23681;DHT22;62915;50.832;4.462;2023-06-22T12:53:00;19.60;99.90
23681;DHT22;62915;50.832;4.462;2023-06-22T12:55:27;19.60;99.90
23681;DHT22;62915;50.832;4.462;2023-06-22T12:57:54;19.60;99.90
23681;DHT22;62915;50.832;4.462;2023-06-22T13:00:21;19.60;99.90
23681;DHT22;62915;50.832;4.462;2023-06-22T13:02:47;19.60;99.90
23681;DHT22;62915;50.832;4.462;2023-06-22T13:05:12;19.60;99.90
23681;DHT22;62915;50.832;4.462;2023-06-22T13:07:38;19.60;99.90
23681;DHT22;62915;50.832;4.462;2023-06-22T13:10:04;19.60;99.90
23681;DHT22;62915;50.832;4.462;2023-06-22T13:12:30;19.60;99.90
23681;DHT22;62915;50.832;4.462;2023-06-22T13:14:56;19.60;99.90
23681;DHT22;62915;50.832;4.462;2023-06-22T13:17:21;19.60;99.90
23681;DHT22;62915;50.832;4.462;2023-06-22T13:19:47;19.60;99.90
23681;DHT22;62915;50.832;4.462;2023-06-22T13:22:32;19.60;99.90
23681;DHT22;62915;50.832;4.462;2023-06-22T13:25:00;19.60;99.90
23681;DHT22;62915;50.832;4.462;2023-06-22T13:27:26;19.70;99.90
23681;DHT22;62915;50.832;4.462;2023-06-22T13:29:52;19.70;99.90
23681;DHT22;62915;50.832;4.462;2023-06-22T13:32:17;19.70;99.90
23681;DHT22;62915;50.832;4.462;2023-06-22T13:34:43;19.70;99.90
23681;DHT22;62915;50.832;4.462;2023-06-22T13:37:09;19.70;99.90
23681;DHT22;62915;50.832;4.462;2023-06-22T13:39:35;19.70;99.90
23681;DHT22;62915;50.832;4.462;2023-06-22T13:42:01;19.60;99.90
23681;DHT22;62915;50.832;4.462;2023-06-22T13:44:27;19.60;99.90
23681;DHT22;62915;50.832;4.462;2023-06-22T13:46:55;19.60;99.90
23681;DHT22;62915;50.832;4.462;2023-06-22T13:49:20;19.60;99.90
23681;DHT22;62915;50.832;4.462;2023-06-22T13:51:47;19.60;99.90
23681;DHT22;62915;50.832;4.462;2023-06-22T13:54:14;19.60;99.90
23681;DHT22;62915;50.832;4.462;2023-06-22T13:56:39;19.40;99.90
23681;DHT22;62915;50.832;4.462;2023-06-22T13:59:05;19.40;99.90
23681;DHT22;62915;50.832;4.462;2023-06-22T14:01:32;19.30;99.90
23681;DHT22;62915;50.832;4.462;2023-06-22T14:03:58;19.30;99.90
23681;DHT22;62915;50.832;4.462;2023-06-22T14:06:23;19.30;99.90
23681;DHT22;62915;50.832;4.462;2023-06-22T14:08:50;19.20;99.90
23681;DHT22;62915;50.832;4.462;2023-06-22T14:11:16;19.20;99.90
23681;DHT22;62915;50.832;4.462;2023-06-22T14:13:42;19.30;99.90
23681;DHT22;62915;50.832;4.462;2023-06-22T14:16:09;19.20;99.90
23681;DHT22;62915;50.832;4.462;2023-06-22T14:18:36;19.20;99.90
23681;DHT22;62915;50.832;4.462;2023-06-22T14:21:01;19.20;99.90
23681;DHT22;62915;50.832;4.462;2023-06-22T14:23:27;19.10;99.90
23681;DHT22;62915;50.832;4.462;2023-06-22T14:25:53;19.10;99.90
23681;DHT22;62915;50.832;4.462;2023-06-22T14:28:19;19.10;99.90
23681;DHT22;62915;50.832;4.462;2023-06-22T14:30:44;19.00;99.90
23681;DHT22;62915;50.832;4.462;2023-06-22T14:33:11;19.10;99.90
23681;DHT22;62915;50.832;4.462;2023-06-22T14:35:37;19.20;99.90
23681;DHT22;62915;50.832;4.462;2023-06-22T14:38:02;19.20;99.90
23681;DHT22;62915;50.832;4.462;2023-06-22T14:40:28;19.00;99.90
23681;DHT22;62915;50.832;4.462;2023-06-22T14:42:54;19.00;99.90
23681;DHT22;62915;50.832;4.462;2023-06-22T14:45:23;19.00;99.90
23681;DHT22;62915;50.832;4.462;2023-06-22T14:47:49;18.90;99.90
23681;DHT22;62915;50.832;4.462;2023-06-22T14:50:15;19.00;99.90
23681;DHT22;62915;50.832;4.462;2023-06-22T14:52:41;19.00;99.90
23681;DHT22;62915;50.832;4.462;2023-06-22T14:55:08;18.90;99.90
23681;DHT22;62915;50.832;4.462;2023-06-22T14:57:34;18.80;99.90
23681;DHT22;62915;50.832;4.462;2023-06-22T14:59:59;18.80;99.90
23681;DHT22;62915;50.832;4.462;2023-06-22T15:02:27;18.90;99.90
23681;DHT22;62915;50.832;4.462;2023-06-22T15:04:52;18.90;99.90
23681;DHT22;62915;50.832;4.462;2023-06-22T15:07:19;18.90;99.90
23681;DHT22;62915;50.832;4.462;2023-06-22T15:09:46;19.00;99.90
23681;DHT22;62915;50.832;4.462;2023-06-22T15:12:12;19.20;99.90
23681;DHT22;62915;50.832;4.462;2023-06-22T15:14:41;19.20;99.90
23681;DHT22;62915;50.832;4.462;2023-06-22T15:17:08;19.20;99.90
23681;DHT22;62915;50.832;4.462;2023-06-22T15:19:39;19.20;99.90
23681;DHT22;62915;50.832;4.462;2023-06-22T15:22:06;19.20;99.90
23681;DHT22;62915;50.832;4.462;2023-06-22T15:24:32;19.30;99.90
23681;DHT22;62915;50.832;4.462;2023-06-22T15:26:59;19.30;99.90
23681;DHT22;62915;50.832;4.462;2023-06-22T15:29:48;19.40;99.90
23681;DHT22;62915;50.832;4.462;2023-06-22T15:32:14;19.40;99.90
23681;DHT22;62915;50.832;4.462;2023-06-22T15:34:59;19.50;99.90
23681;DHT22;62915;50.832;4.462;2023-06-22T15:37:47;19.60;99.90
23681;DHT22;62915;50.832;4.462;2023-06-22T15:40:13;19.70;99.90
23681;DHT22;62915;50.832;4.462;2023-06-22T15:42:39;19.80;99.90
23681;DHT22;62915;50.832;4.462;2023-06-22T15:45:05;19.90;99.90
23681;DHT22;62915;50.832;4.462;2023-06-22T15:47:31;19.90;99.90
23681;DHT22;62915;50.832;4.462;2023-06-22T15:49:56;19.90;99.90
23681;DHT22;62915;50.832;4.462;2023-06-22T15:52:22;20.00;99.90